Terminal Aerodrome Forecast
Issued by NWS

Home | Current Version | Previous Version | Text Only | Print | Product List | Glossary On
Versions: 1 2 3 4 5 6 7 8 9 10 11 12 13 14 15 16
000
FTUS43 KSGF 301735 CCB
TAFJLN
TAF COR
KJLN 301735Z 3018/3118 18006KT P6SM VCTS BKN120CB
      TEMPO 3018/3021 23015G30KT 2SM -TSRA BR SCT010CB BKN020
     FM310300 15005KT P6SM SCT250
     FM311200 16005KT 6SM BR VCTS BKN090CB
     FM311500 16005KT P6SM VCTS OVC015CB=

USA.gov is the U.S. government's official web portal to all federal, state and local government web resources and services.